createdAt,value
2022-12-11T00:01:34.066Z,3.78
2022-12-11T00:04:37.091Z,7.53
2022-12-11T00:07:40.866Z,7.68
2022-12-11T00:10:50.788Z,5.70
2022-12-11T00:13:53.685Z,3.85
2022-12-11T00:16:56.770Z,5.75
2022-12-11T00:19:59.772Z,3.75
2022-12-11T00:23:02.900Z,3.83
2022-12-11T00:26:07.997Z,5.25
2022-12-11T00:29:15.097Z,8.02
2022-12-11T00:32:18.607Z,4.47
2022-12-11T00:35:22.310Z,3.72
2022-12-11T00:38:25.644Z,5.53
2022-12-11T00:41:29.279Z,3.40
2022-12-11T00:44:32.327Z,6.43
2022-12-11T00:47:35.334Z,4.15
2022-12-11T00:50:39.334Z,6.72
2022-12-11T00:53:42.314Z,3.55
2022-12-11T00:56:45.692Z,4.68
2022-12-11T00:59:49.276Z,5.55
2022-12-11T01:02:55.549Z,8.60
2022-12-11T01:05:58.621Z,13.57
2022-12-11T01:09:20.511Z,11.68
2022-12-11T01:12:23.509Z,9.98
2022-12-11T01:15:31.989Z,10.27
2022-12-11T01:18:35.812Z,14.32
2022-12-11T01:21:39.052Z,12.82
2022-12-11T01:24:42.055Z,13.70
2022-12-11T01:27:45.832Z,15.52
2022-12-11T01:30:48.965Z,9.27
2022-12-11T01:33:55.730Z,10.05
2022-12-11T01:37:01.177Z,20.98
2022-12-11T01:40:07.269Z,13.55
2022-12-11T01:43:12.385Z,8.10
2022-12-11T01:46:15.362Z,15.55
2022-12-11T01:49:21.380Z,7.72
2022-12-11T01:52:25.703Z,10.50
2022-12-11T01:55:28.908Z,11.00
2022-12-11T01:58:35.444Z,9.10
2022-12-11T02:01:57.817Z,8.00
2022-12-11T02:05:04.400Z,9.32
2022-12-11T02:08:09.298Z,14.27
2022-12-11T02:11:21.891Z,9.95
2022-12-11T02:14:37.794Z,15.27
2022-12-11T02:18:00.988Z,23.48
2022-12-11T02:21:32.761Z,32.65
2022-12-11T02:25:08.076Z,32.10
2022-12-11T02:28:30.501Z,22.13
2022-12-11T02:31:36.664Z,15.20
2022-12-11T02:34:50.018Z,24.00
2022-12-11T02:37:59.991Z,18.10
2022-12-11T02:41:05.809Z,14.63
2022-12-11T02:44:11.410Z,19.50
2022-12-11T02:47:17.385Z,17.90
2022-12-11T02:50:24.160Z,14.65
2022-12-11T02:53:31.419Z,14.38
2022-12-11T02:56:45.214Z,22.38
2022-12-11T02:59:50.094Z,21.63
2022-12-11T03:02:53.342Z,16.23
2022-12-11T03:05:57.050Z,22.77
2022-12-11T03:09:00.828Z,30.38
2022-12-11T03:12:03.998Z,19.83
2022-12-11T03:15:13.871Z,12.52
2022-12-11T03:18:43.880Z,14.27
2022-12-11T03:21:53.778Z,24.48
2022-12-11T03:25:04.245Z,17.80
2022-12-11T03:28:16.468Z,27.10
2022-12-11T03:31:30.406Z,10.02
2022-12-11T03:34:48.088Z,22.08
2022-12-11T03:38:00.349Z,11.57
2022-12-11T03:41:05.895Z,19.00
2022-12-11T03:44:10.074Z,10.38
2022-12-11T03:47:18.748Z,20.27
2022-12-11T03:50:24.989Z,28.70
2022-12-11T03:53:29.733Z,13.73
2022-12-11T03:56:36.670Z,17.63
2022-12-11T03:59:43.697Z,13.05
2022-12-11T04:03:12.986Z,23.10
2022-12-11T04:06:17.236Z,26.15
2022-12-11T04:09:20.861Z,12.98
2022-12-11T04:12:25.006Z,16.08
2022-12-11T04:15:28.488Z,9.55
2022-12-11T04:18:50.954Z,17.75
2022-12-11T04:22:12.986Z,11.18
2022-12-11T04:25:16.811Z,8.38
2022-12-11T04:28:20.622Z,16.95
2022-12-11T04:31:24.672Z,11.52
2022-12-11T04:34:28.222Z,18.38
2022-12-11T04:37:35.009Z,14.52
2022-12-11T04:40:38.803Z,15.60
2022-12-11T04:43:45.967Z,12.88
2022-12-11T04:46:49.947Z,10.63
2022-12-11T04:49:56.276Z,9.80
2022-12-11T04:53:00.282Z,12.38
2022-12-11T04:56:07.497Z,15.23
2022-12-11T04:59:10.937Z,18.42
2022-12-11T05:02:15.078Z,29.70
2022-12-11T05:05:18.824Z,21.75
2022-12-11T05:08:23.452Z,18.17
2022-12-11T05:11:27.153Z,13.45
2022-12-11T05:14:32.669Z,11.63
2022-12-11T05:17:36.258Z,18.30
2022-12-11T05:20:39.670Z,14.07
2022-12-11T05:23:43.945Z,21.63
2022-12-11T05:26:47.436Z,22.20
2022-12-11T05:29:54.862Z,9.70
2022-12-11T05:33:03.132Z,15.00
2022-12-11T05:36:08.325Z,15.93
2022-12-11T05:39:12.916Z,13.65
2022-12-11T05:42:16.682Z,9.75
2022-12-11T05:45:19.930Z,12.10
2022-12-11T05:48:24.346Z,14.43
2022-12-11T05:51:28.949Z,15.07
2022-12-11T05:54:32.605Z,19.70
2022-12-11T05:57:36.286Z,15.27
2022-12-11T06:00:43.114Z,25.90
2022-12-11T06:03:46.547Z,24.73
2022-12-11T06:06:50.344Z,33.00
2022-12-11T06:09:54.094Z,27.10
2022-12-11T06:12:56.995Z,30.40
2022-12-11T06:16:09.132Z,20.77
2022-12-11T06:19:16.170Z,19.52
2022-12-11T06:22:19.942Z,26.63
2022-12-11T06:25:23.680Z,16.92
2022-12-11T06:28:27.940Z,20.10
2022-12-11T06:31:31.551Z,26.40
2022-12-11T06:34:35.611Z,15.10
2022-12-11T06:37:39.837Z,16.98
2022-12-11T06:40:43.342Z,12.82
2022-12-11T06:43:46.780Z,12.70
2022-12-11T06:46:50.969Z,19.42
2022-12-11T06:49:54.789Z,24.50
2022-12-11T06:52:58.566Z,14.80
2022-12-11T06:56:11.385Z,15.02
2022-12-11T06:59:15.622Z,18.63
2022-12-11T07:02:22.216Z,24.13
2022-12-11T07:05:26.316Z,10.65
2022-12-11T07:08:30.375Z,13.77
2022-12-11T07:11:34.518Z,11.05
2022-12-11T07:14:37.578Z,14.68
2022-12-11T07:17:41.064Z,17.50
2022-12-11T07:20:44.152Z,21.63
2022-12-11T07:23:49.546Z,23.50
2022-12-11T07:26:53.382Z,26.42
2022-12-11T07:29:57.144Z,38.67
2022-12-11T07:33:00.785Z,43.95
2022-12-11T07:36:06.579Z,42.30
2022-12-11T07:39:12.664Z,36.03
2022-12-11T07:42:16.851Z,33.22
2022-12-11T07:45:20.202Z,47.22
2022-12-11T07:48:23.105Z,62.90
2022-12-11T07:51:31.924Z,52.38
2022-12-11T07:54:35.288Z,57.72
2022-12-11T07:57:38.362Z,69.90
2022-12-11T08:00:42.011Z,66.45
2022-12-11T08:03:45.576Z,62.85
2022-12-11T08:06:49.186Z,73.35
2022-12-11T08:09:52.661Z,67.28
2022-12-11T08:12:56.108Z,65.43
2022-12-11T08:16:00.144Z,98.13
2022-12-11T08:19:04.008Z,117.28
2022-12-11T08:22:07.424Z,147.02
2022-12-11T08:25:11.841Z,112.70
2022-12-11T08:28:15.685Z,113.82
2022-12-11T08:31:20.263Z,102.07
2022-12-11T08:34:23.945Z,79.03
2022-12-11T08:37:26.977Z,82.85
2022-12-11T08:40:29.922Z,73.70
2022-12-11T08:43:35.055Z,68.38
2022-12-11T08:46:38.814Z,55.05
2022-12-11T08:49:42.903Z,73.28
2022-12-11T08:52:48.137Z,83.90
2022-12-11T08:55:51.952Z,80.55
2022-12-11T08:58:55.204Z,84.25
2022-12-11T09:01:58.722Z,100.30
2022-12-11T09:05:02.497Z,68.75
2022-12-11T09:08:06.534Z,63.95
2022-12-11T09:11:16.110Z,63.35
2022-12-11T09:14:20.227Z,59.78
2022-12-11T09:17:23.191Z,65.15
2022-12-11T09:20:26.964Z,62.85
2022-12-11T09:23:30.229Z,93.80
2022-12-11T09:26:34.006Z,72.85
2022-12-11T09:29:37.295Z,71.65
2022-12-11T09:32:41.596Z,80.47
2022-12-11T09:35:45.331Z,73.25
2022-12-11T09:38:49.201Z,64.15
2022-12-11T09:42:05.654Z,71.57
2022-12-11T09:45:15.006Z,66.07
2022-12-11T09:48:23.071Z,31.75
2022-12-11T09:51:48.511Z,41.65
2022-12-11T09:54:56.471Z,56.80
2022-12-11T09:58:12.827Z,71.60
2022-12-11T10:01:21.088Z,47.30
2022-12-11T10:04:28.314Z,44.03
2022-12-11T10:07:37.539Z,52.67
2022-12-11T10:11:21.584Z,49.10
2022-12-11T10:15:02.553Z,58.90
2022-12-11T10:18:13.949Z,40.67
2022-12-11T10:21:19.197Z,42.60
2022-12-11T10:28:14.471Z,37.13
2022-12-11T10:31:33.526Z,45.47
2022-12-11T10:34:45.959Z,41.22
2022-12-11T10:37:50.092Z,33.72
2022-12-11T10:40:58.073Z,40.75
2022-12-11T10:44:04.679Z,38.78
2022-12-11T10:47:18.207Z,71.87
2022-12-11T10:50:25.312Z,94.55
2022-12-11T10:53:29.953Z,99.00
2022-12-11T10:56:39.434Z,100.85
2022-12-11T10:59:51.183Z,78.25
2022-12-11T11:02:54.534Z,61.75
2022-12-11T11:06:08.617Z,66.55
2022-12-11T11:09:37.436Z,100.35
2022-12-11T11:12:49.265Z,112.53
2022-12-11T11:16:04.562Z,121.45
2022-12-11T11:19:08.523Z,134.93
2022-12-11T11:22:19.413Z,167.18
2022-12-11T11:25:25.738Z,214.90
2022-12-11T11:28:35.084Z,257.15
2022-12-11T11:31:38.144Z,255.85
2022-12-11T11:34:41.917Z,250.88
2022-12-11T11:37:59.295Z,363.08
2022-12-11T11:41:29.970Z,353.58
2022-12-11T11:44:39.798Z,374.13
2022-12-11T11:47:54.724Z,334.70
2022-12-11T11:50:59.207Z,401.75
2022-12-11T11:54:10.323Z,422.50
2022-12-11T11:57:43.269Z,397.25
2022-12-11T12:00:47.191Z,322.90
2022-12-11T12:03:52.755Z,311.08
2022-12-11T12:07:35.211Z,266.63
2022-12-11T12:11:12.448Z,246.82
2022-12-11T12:18:26.712Z,192.23
2022-12-11T12:21:37.259Z,179.10
2022-12-11T12:25:18.011Z,200.10
2022-12-11T12:28:33.699Z,157.40
2022-12-11T12:32:27.198Z,125.07
2022-12-11T12:35:39.021Z,118.10
2022-12-11T12:39:14.035Z,109.28
2022-12-11T12:42:23.624Z,94.47
2022-12-11T12:45:49.929Z,78.78
2022-12-11T12:48:55.490Z,69.32
2022-12-11T12:51:59.801Z,79.95
2022-12-11T12:55:26.157Z,67.97
2022-12-11T12:58:47.090Z,80.15
2022-12-11T13:01:57.946Z,58.00
2022-12-11T13:05:08.320Z,69.45
2022-12-11T13:08:13.844Z,47.17
2022-12-11T13:11:19.673Z,45.42
2022-12-11T13:14:28.602Z,54.03
2022-12-11T13:17:39.990Z,42.78
2022-12-11T13:20:52.027Z,44.10
2022-12-11T13:23:56.337Z,72.68
2022-12-11T13:27:12.138Z,72.82
2022-12-11T13:30:15.980Z,75.82
2022-12-11T13:33:19.955Z,58.92
2022-12-11T13:36:26.465Z,77.07
2022-12-11T13:39:36.001Z,74.20
2022-12-11T13:42:55.400Z,77.43
2022-12-11T13:46:05.760Z,53.53
2022-12-11T13:49:23.866Z,78.97
2022-12-11T13:52:29.163Z,84.88
2022-12-11T13:55:35.029Z,46.45
2022-12-11T13:58:40.697Z,84.75
2022-12-11T14:01:44.052Z,54.63
2022-12-11T14:04:51.831Z,83.32
2022-12-11T14:07:59.465Z,68.72
2022-12-11T14:11:03.813Z,62.78
2022-12-11T14:14:18.626Z,82.50
2022-12-11T14:17:34.881Z,66.30
2022-12-11T14:20:37.943Z,72.72
2022-12-11T14:23:41.607Z,40.88
2022-12-11T14:26:52.845Z,67.43
2022-12-11T14:29:57.312Z,68.55
2022-12-11T14:33:04.271Z,64.55
2022-12-11T14:36:08.625Z,68.43
2022-12-11T14:39:20.710Z,46.38
2022-12-11T14:42:46.836Z,63.47
2022-12-11T14:45:58.025Z,46.90
2022-12-11T14:49:06.598Z,38.40
2022-12-11T14:52:34.847Z,54.00
2022-12-11T14:55:41.066Z,22.27
2022-12-11T14:58:52.737Z,37.10
2022-12-11T15:02:05.169Z,32.83
2022-12-11T15:05:20.829Z,31.00
2022-12-11T15:08:28.894Z,33.33
2022-12-11T15:11:33.323Z,22.15
2022-12-11T15:14:36.487Z,19.15
2022-12-11T15:17:41.510Z,23.80
2022-12-11T15:20:45.168Z,23.55
2022-12-11T15:23:57.386Z,8.90
2022-12-11T15:27:01.795Z,28.35
2022-12-11T15:30:27.348Z,14.60
2022-12-11T15:33:34.236Z,23.58
2022-12-11T15:36:38.742Z,31.92
2022-12-11T15:39:41.984Z,29.70
2022-12-11T15:42:45.740Z,30.10
2022-12-11T15:45:49.495Z,40.22
2022-12-11T15:48:53.775Z,30.63
2022-12-11T15:51:57.617Z,34.35
2022-12-11T15:55:01.386Z,13.90
2022-12-11T15:58:16.637Z,21.10
2022-12-11T16:01:21.444Z,18.77
2022-12-11T16:04:24.707Z,13.88
2022-12-11T16:07:27.757Z,27.23
2022-12-11T16:10:31.245Z,13.73
2022-12-11T16:13:34.893Z,17.58
2022-12-11T16:16:38.721Z,18.00
2022-12-11T16:19:43.129Z,17.45
2022-12-11T16:22:46.129Z,15.07
2022-12-11T16:25:49.221Z,22.10
2022-12-11T16:28:52.967Z,8.98
2022-12-11T16:31:56.321Z,12.07
2022-12-11T16:35:05.046Z,8.02
2022-12-11T16:38:08.361Z,5.82
2022-12-11T16:41:11.337Z,12.98
2022-12-11T16:44:14.745Z,8.43
2022-12-11T16:47:17.657Z,7.65
2022-12-11T16:50:22.006Z,5.75
2022-12-11T16:53:26.049Z,4.03
2022-12-11T16:56:29.725Z,7.45
2022-12-11T16:59:37.054Z,8.13
2022-12-11T17:02:40.995Z,3.78
2022-12-11T17:05:45.705Z,8.45
2022-12-11T17:08:49.157Z,4.03
2022-12-11T17:11:54.082Z,5.03
2022-12-11T17:14:57.993Z,2.83
2022-12-11T17:18:01.635Z,3.90
2022-12-11T17:21:19.191Z,7.15
2022-12-11T17:24:23.091Z,7.38
2022-12-11T17:27:26.034Z,5.30
2022-12-11T17:30:29.008Z,4.88
2022-12-11T17:33:31.972Z,7.25
2022-12-11T17:36:34.949Z,6.95
2022-12-11T17:39:39.646Z,7.80
2022-12-11T17:42:45.380Z,4.50
2022-12-11T17:45:53.280Z,7.30
2022-12-11T17:48:59.867Z,4.38
2022-12-11T17:52:03.084Z,7.38
2022-12-11T17:55:07.662Z,7.22
2022-12-11T17:58:17.427Z,7.55
2022-12-11T18:01:21.051Z,11.60
2022-12-11T18:04:25.054Z,4.03
2022-12-11T18:07:28.060Z,3.35
2022-12-11T18:10:31.775Z,5.68
2022-12-11T18:13:34.940Z,6.80
2022-12-11T18:16:39.383Z,6.78
2022-12-11T18:19:46.027Z,6.55
2022-12-11T18:22:52.151Z,5.15
2022-12-11T18:25:55.548Z,4.55
2022-12-11T18:28:58.672Z,6.68
2022-12-11T18:32:01.608Z,5.15
2022-12-11T18:35:05.980Z,6.82
2022-12-11T18:38:09.922Z,7.32
2022-12-11T18:41:17.807Z,3.53
2022-12-11T18:44:23.161Z,7.28
2022-12-11T18:47:27.303Z,6.97
2022-12-11T18:50:31.055Z,6.43
2022-12-11T18:53:35.633Z,8.77
2022-12-11T18:56:39.375Z,7.72
2022-12-11T18:59:43.363Z,3.55
2022-12-11T19:02:47.125Z,6.95
2022-12-11T19:05:50.718Z,2.78
2022-12-11T19:08:54.450Z,5.25
2022-12-11T19:11:58.051Z,6.53
2022-12-11T19:15:01.710Z,7.28
2022-12-11T19:18:05.970Z,8.18
2022-12-11T19:21:13.953Z,4.85
2022-12-11T19:24:21.264Z,9.75
2022-12-11T19:27:24.560Z,8.93
2022-12-11T19:30:28.495Z,5.45
2022-12-11T19:33:31.738Z,7.63
2022-12-11T19:36:37.485Z,5.22
2022-12-11T19:39:41.421Z,8.55
2022-12-11T19:42:45.159Z,3.03
2022-12-11T19:45:48.868Z,4.60
2022-12-11T19:48:55.034Z,3.38
2022-12-11T19:51:58.798Z,7.85
2022-12-11T19:55:05.483Z,2.83
2022-12-11T19:58:08.873Z,7.00
2022-12-11T20:01:26.812Z,2.40
2022-12-11T20:04:30.199Z,8.77
2022-12-11T20:07:33.485Z,5.47
2022-12-11T20:10:37.251Z,6.10
2022-12-11T20:13:46.250Z,6.72
2022-12-11T20:20:13.454Z,3.97
2022-12-11T20:23:17.158Z,7.00
2022-12-11T20:26:24.889Z,4.63
2022-12-11T20:29:27.824Z,3.42
2022-12-11T20:32:31.103Z,5.97
2022-12-11T20:35:35.062Z,4.68
2022-12-11T20:38:38.887Z,6.28
2022-12-11T20:41:42.686Z,11.50
2022-12-11T20:44:49.174Z,4.75
2022-12-11T20:47:53.186Z,3.90
2022-12-11T20:51:01.884Z,4.60
2022-12-11T20:54:05.664Z,8.10
2022-12-11T20:57:08.916Z,8.35
2022-12-11T21:00:13.556Z,7.85
2022-12-11T21:03:19.518Z,4.32
2022-12-11T21:06:25.946Z,8.18
2022-12-11T21:09:30.398Z,2.50
2022-12-11T21:12:34.273Z,5.13
2022-12-11T21:15:39.287Z,8.70
2022-12-11T21:18:44.783Z,4.55
2022-12-11T21:21:49.614Z,7.30
2022-12-11T21:24:53.293Z,8.50
2022-12-11T21:27:57.183Z,7.53
2022-12-11T21:31:06.469Z,4.55
2022-12-11T21:34:10.932Z,6.47
2022-12-11T21:37:13.952Z,5.28
2022-12-11T21:40:19.683Z,4.65
2022-12-11T21:43:24.085Z,7.22
2022-12-11T21:46:29.782Z,10.10
2022-12-11T21:49:33.549Z,9.23
2022-12-11T21:52:39.328Z,9.30
2022-12-11T21:55:43.322Z,8.05
2022-12-11T21:58:47.058Z,6.53
2022-12-11T22:01:50.821Z,5.63
2022-12-11T22:04:55.143Z,9.55
2022-12-11T22:07:58.870Z,7.28
2022-12-11T22:11:02.854Z,6.22
2022-12-11T22:14:07.616Z,8.95
2022-12-11T22:17:11.576Z,2.63
2022-12-11T22:20:15.219Z,7.28
2022-12-11T22:23:19.263Z,7.53
2022-12-11T22:26:26.378Z,6.35
2022-12-11T22:29:30.257Z,5.35
2022-12-11T22:32:34.158Z,8.40
2022-12-11T22:35:39.440Z,5.10
2022-12-11T22:38:43.052Z,5.15
2022-12-11T22:41:47.150Z,13.10
2022-12-11T22:44:50.155Z,5.47
2022-12-11T22:47:53.108Z,11.45
2022-12-11T22:50:56.818Z,7.43
2022-12-11T22:54:00.884Z,5.72
2022-12-11T22:57:04.443Z,10.20
2022-12-11T23:00:14.667Z,9.02
2022-12-11T23:03:17.810Z,10.43
2022-12-11T23:06:25.426Z,10.68
2022-12-11T23:09:28.529Z,10.15
2022-12-11T23:12:31.713Z,10.23
2022-12-11T23:15:34.912Z,7.25
2022-12-11T23:18:38.409Z,12.77
2022-12-11T23:21:42.629Z,7.05
2022-12-11T23:24:48.829Z,8.32
2022-12-11T23:27:52.478Z,5.65
2022-12-11T23:30:55.992Z,13.00
2022-12-11T23:33:59.805Z,18.65
2022-12-11T23:37:04.060Z,9.98
2022-12-11T23:40:09.602Z,4.38
2022-12-11T23:43:13.398Z,5.38
2022-12-11T23:46:23.610Z,4.85
2022-12-11T23:49:27.497Z,15.52
2022-12-11T23:52:30.447Z,10.15
2022-12-11T23:55:33.690Z,10.88
2022-12-11T23:58:38.825Z,12.55
